Flugplatz Altenburg-Nobitz

Bericht für EDAC

vom 27.09. um 00:50 UTC

Wind 4 kt aus 140°

Sichtweite 10 km oder mehr

keine Wolken

Temperatur 4.0°C

Taupunkt 4.0°C

Luftfeuchtigkeit 100%

Luftdruck 999 hPa

EDAC 270050Z AUTO 14004KT 9999 // NCD 04/04 Q0999

Prognose für EDAC

vom 26.09. um 17:00 UTC

Am 26.09. zwischen 18:00 UTC und 03:00 UTC

Wind 8 kt aus 220°

Sichtweite 10 km oder mehr

aufgebrochene Bewölkung in 3000 ft


Am 26.09. zwischen 18:00 UTC und 20:00 UTC zeitweise mit einer Wahrscheinlichkeit von 30%

Sichtweite 4000 m

Regen

Sprühregen

aufgebrochene Bewölkung in 1000 ft

TAF EDAC 261700Z 2618/2703 22008KT 9999 BKN030 PROB30 TEMPO 2618/2620 4000 RADZ BKN010
Impressum